sensor_id;sensor_type;location;lat;lon;timestamp;P1;durP1;ratioP1;P2;durP2;ratioP2
32319;SDS011;19080;51.750;5.888;2024-01-16T00:00:08;11.10;;;6.10;;
32319;SDS011;19080;51.750;5.888;2024-01-16T00:02:35;16.67;;;6.10;;
32319;SDS011;19080;51.750;5.888;2024-01-16T00:05:02;14.88;;;6.88;;
32319;SDS011;19080;51.750;5.888;2024-01-16T00:07:33;15.93;;;5.88;;
32319;SDS011;19080;51.750;5.888;2024-01-16T00:10:03;12.13;;;5.95;;
32319;SDS011;19080;51.750;5.888;2024-01-16T00:12:30;10.02;;;6.20;;
32319;SDS011;19080;51.750;5.888;2024-01-16T00:14:57;14.52;;;6.30;;
32319;SDS011;19080;51.750;5.888;2024-01-16T00:17:24;18.08;;;8.77;;
32319;SDS011;19080;51.750;5.888;2024-01-16T00:19:50;23.58;;;8.35;;
32319;SDS011;19080;51.750;5.888;2024-01-16T00:22:18;12.80;;;7.35;;
32319;SDS011;19080;51.750;5.888;2024-01-16T00:24:44;17.90;;;8.25;;
32319;SDS011;19080;51.750;5.888;2024-01-16T00:27:11;11.35;;;7.22;;
32319;SDS011;19080;51.750;5.888;2024-01-16T00:29:38;17.85;;;8.15;;
32319;SDS011;19080;51.750;5.888;2024-01-16T00:32:04;16.15;;;7.78;;
32319;SDS011;19080;51.750;5.888;2024-01-16T00:34:31;13.90;;;6.90;;
32319;SDS011;19080;51.750;5.888;2024-01-16T00:36:58;16.27;;;7.28;;
32319;SDS011;19080;51.750;5.888;2024-01-16T00:39:25;12.40;;;6.00;;
32319;SDS011;19080;51.750;5.888;2024-01-16T00:41:51;19.13;;;7.97;;
32319;SDS011;19080;51.750;5.888;2024-01-16T00:44:18;16.23;;;8.52;;
32319;SDS011;19080;51.750;5.888;2024-01-16T00:46:45;14.80;;;5.82;;
32319;SDS011;19080;51.750;5.888;2024-01-16T00:49:12;9.95;;;5.05;;
32319;SDS011;19080;51.750;5.888;2024-01-16T00:51:38;12.70;;;5.55;;
32319;SDS011;19080;51.750;5.888;2024-01-16T00:54:05;13.10;;;6.40;;
32319;SDS011;19080;51.750;5.888;2024-01-16T00:56:35;11.73;;;6.40;;
32319;SDS011;19080;51.750;5.888;2024-01-16T00:59:02;10.65;;;5.93;;
32319;SDS011;19080;51.750;5.888;2024-01-16T01:01:29;73.40;;;22.58;;
32319;SDS011;19080;51.750;5.888;2024-01-16T01:03:56;57.45;;;18.45;;
32319;SDS011;19080;51.750;5.888;2024-01-16T01:06:23;38.75;;;13.05;;
32319;SDS011;19080;51.750;5.888;2024-01-16T01:08:49;30.63;;;10.73;;
32319;SDS011;19080;51.750;5.888;2024-01-16T01:11:17;15.13;;;7.40;;
32319;SDS011;19080;51.750;5.888;2024-01-16T01:13:44;15.82;;;6.72;;
32319;SDS011;19080;51.750;5.888;2024-01-16T01:16:11;13.15;;;6.93;;
32319;SDS011;19080;51.750;5.888;2024-01-16T01:18:37;12.48;;;6.40;;
32319;SDS011;19080;51.750;5.888;2024-01-16T01:21:04;10.82;;;7.18;;
32319;SDS011;19080;51.750;5.888;2024-01-16T01:23:31;11.90;;;6.68;;
32319;SDS011;19080;51.750;5.888;2024-01-16T01:25:59;15.43;;;7.03;;
32319;SDS011;19080;51.750;5.888;2024-01-16T01:28:26;9.75;;;5.63;;
32319;SDS011;19080;51.750;5.888;2024-01-16T01:30:53;13.70;;;6.22;;
32319;SDS011;19080;51.750;5.888;2024-01-16T01:33:20;7.57;;;5.72;;
32319;SDS011;19080;51.750;5.888;2024-01-16T01:35:47;14.48;;;6.68;;
32319;SDS011;19080;51.750;5.888;2024-01-16T01:38:13;10.68;;;7.32;;
32319;SDS011;19080;51.750;5.888;2024-01-16T01:40:40;11.13;;;6.90;;
32319;SDS011;19080;51.750;5.888;2024-01-16T01:43:22;11.82;;;6.45;;
32319;SDS011;19080;51.750;5.888;2024-01-16T01:45:59;10.25;;;7.07;;
32319;SDS011;19080;51.750;5.888;2024-01-16T01:48:35;17.08;;;7.50;;
32319;SDS011;19080;51.750;5.888;2024-01-16T01:51:03;11.10;;;7.15;;
32319;SDS011;19080;51.750;5.888;2024-01-16T01:53:31;14.40;;;6.50;;
32319;SDS011;19080;51.750;5.888;2024-01-16T01:56:01;12.82;;;6.82;;
32319;SDS011;19080;51.750;5.888;2024-01-16T01:58:33;9.85;;;6.43;;
32319;SDS011;19080;51.750;5.888;2024-01-16T02:01:00;7.72;;;6.00;;
32319;SDS011;19080;51.750;5.888;2024-01-16T02:03:29;11.30;;;6.63;;
32319;SDS011;19080;51.750;5.888;2024-01-16T02:05:56;9.85;;;6.18;;
32319;SDS011;19080;51.750;5.888;2024-01-16T02:08:23;14.85;;;6.90;;
32319;SDS011;19080;51.750;5.888;2024-01-16T02:10:50;10.75;;;5.97;;
32319;SDS011;19080;51.750;5.888;2024-01-16T02:13:18;7.93;;;6.25;;
32319;SDS011;19080;51.750;5.888;2024-01-16T02:15:47;11.48;;;5.70;;
32319;SDS011;19080;51.750;5.888;2024-01-16T02:18:14;9.27;;;5.80;;
32319;SDS011;19080;51.750;5.888;2024-01-16T02:20:40;12.13;;;5.38;;
32319;SDS011;19080;51.750;5.888;2024-01-16T02:23:07;9.68;;;5.60;;
32319;SDS011;19080;51.750;5.888;2024-01-16T02:25:38;9.45;;;5.55;;
32319;SDS011;19080;51.750;5.888;2024-01-16T02:28:06;8.23;;;5.32;;
32319;SDS011;19080;51.750;5.888;2024-01-16T02:30:33;11.80;;;5.75;;
32319;SDS011;19080;51.750;5.888;2024-01-16T02:33:00;8.40;;;4.93;;
32319;SDS011;19080;51.750;5.888;2024-01-16T02:35:27;11.05;;;5.32;;
32319;SDS011;19080;51.750;5.888;2024-01-16T02:37:54;9.40;;;6.20;;
32319;SDS011;19080;51.750;5.888;2024-01-16T02:40:21;9.60;;;5.70;;
32319;SDS011;19080;51.750;5.888;2024-01-16T02:42:49;11.95;;;5.97;;
32319;SDS011;19080;51.750;5.888;2024-01-16T02:45:15;8.82;;;5.18;;
32319;SDS011;19080;51.750;5.888;2024-01-16T02:47:42;11.93;;;5.65;;
32319;SDS011;19080;51.750;5.888;2024-01-16T02:50:09;9.43;;;5.68;;
32319;SDS011;19080;51.750;5.888;2024-01-16T02:52:36;10.63;;;5.63;;
32319;SDS011;19080;51.750;5.888;2024-01-16T02:55:03;14.05;;;5.97;;
32319;SDS011;19080;51.750;5.888;2024-01-16T02:57:31;10.13;;;5.60;;
32319;SDS011;19080;51.750;5.888;2024-01-16T02:59:58;9.80;;;5.97;;
32319;SDS011;19080;51.750;5.888;2024-01-16T03:02:24;9.35;;;6.05;;
32319;SDS011;19080;51.750;5.888;2024-01-16T03:04:51;12.02;;;6.03;;
32319;SDS011;19080;51.750;5.888;2024-01-16T03:07:19;9.02;;;5.65;;
32319;SDS011;19080;51.750;5.888;2024-01-16T03:09:45;12.98;;;5.63;;
32319;SDS011;19080;51.750;5.888;2024-01-16T03:12:12;11.57;;;6.20;;
32319;SDS011;19080;51.750;5.888;2024-01-16T03:14:39;12.82;;;4.97;;
32319;SDS011;19080;51.750;5.888;2024-01-16T03:17:06;13.95;;;5.70;;
32319;SDS011;19080;51.750;5.888;2024-01-16T03:19:33;9.55;;;4.97;;
32319;SDS011;19080;51.750;5.888;2024-01-16T03:22:00;9.98;;;4.45;;
32319;SDS011;19080;51.750;5.888;2024-01-16T03:24:26;13.25;;;5.50;;
32319;SDS011;19080;51.750;5.888;2024-01-16T03:26:53;9.50;;;4.75;;
32319;SDS011;19080;51.750;5.888;2024-01-16T03:29:20;12.35;;;4.82;;
32319;SDS011;19080;51.750;5.888;2024-01-16T03:31:47;8.23;;;4.45;;
32319;SDS011;19080;51.750;5.888;2024-01-16T03:34:14;9.57;;;4.72;;
32319;SDS011;19080;51.750;5.888;2024-01-16T03:36:41;9.00;;;4.22;;
32319;SDS011;19080;51.750;5.888;2024-01-16T03:39:07;11.80;;;4.88;;
32319;SDS011;19080;51.750;5.888;2024-01-16T03:41:35;8.18;;;4.28;;
32319;SDS011;19080;51.750;5.888;2024-01-16T03:44:02;11.50;;;3.90;;
32319;SDS011;19080;51.750;5.888;2024-01-16T03:46:28;5.60;;;4.25;;
32319;SDS011;19080;51.750;5.888;2024-01-16T03:48:55;8.70;;;4.43;;
32319;SDS011;19080;51.750;5.888;2024-01-16T03:51:22;7.40;;;4.25;;
32319;SDS011;19080;51.750;5.888;2024-01-16T03:53:49;10.18;;;4.00;;
32319;SDS011;19080;51.750;5.888;2024-01-16T03:56:16;8.18;;;4.10;;
32319;SDS011;19080;51.750;5.888;2024-01-16T03:58:43;9.50;;;4.32;;
32319;SDS011;19080;51.750;5.888;2024-01-16T04:01:09;7.35;;;4.15;;
32319;SDS011;19080;51.750;5.888;2024-01-16T04:03:36;8.68;;;4.13;;
32319;SDS011;19080;51.750;5.888;2024-01-16T04:06:14;5.13;;;2.92;;
32319;SDS011;19080;51.750;5.888;2024-01-16T04:08:44;10.52;;;3.80;;
32319;SDS011;19080;51.750;5.888;2024-01-16T04:11:12;11.38;;;3.60;;
32319;SDS011;19080;51.750;5.888;2024-01-16T04:13:40;7.55;;;2.95;;
32319;SDS011;19080;51.750;5.888;2024-01-16T04:16:07;4.82;;;2.90;;
32319;SDS011;19080;51.750;5.888;2024-01-16T04:18:38;7.03;;;2.85;;
32319;SDS011;19080;51.750;5.888;2024-01-16T04:21:06;9.35;;;2.55;;
32319;SDS011;19080;51.750;5.888;2024-01-16T04:23:33;4.00;;;2.50;;
32319;SDS011;19080;51.750;5.888;2024-01-16T04:26:00;5.70;;;2.70;;
32319;SDS011;19080;51.750;5.888;2024-01-16T04:28:26;6.60;;;2.75;;
32319;SDS011;19080;51.750;5.888;2024-01-16T04:30:53;7.25;;;2.80;;
32319;SDS011;19080;51.750;5.888;2024-01-16T04:33:20;3.50;;;2.28;;
32319;SDS011;19080;51.750;5.888;2024-01-16T04:35:47;3.47;;;1.95;;
32319;SDS011;19080;51.750;5.888;2024-01-16T04:38:14;8.85;;;2.40;;
32319;SDS011;19080;51.750;5.888;2024-01-16T04:40:40;6.20;;;2.35;;
32319;SDS011;19080;51.750;5.888;2024-01-16T04:43:07;6.35;;;2.20;;
32319;SDS011;19080;51.750;5.888;2024-01-16T04:45:34;4.18;;;2.17;;
32319;SDS011;19080;51.750;5.888;2024-01-16T04:48:24;4.30;;;2.50;;
32319;SDS011;19080;51.750;5.888;2024-01-16T04:50:51;4.32;;;2.20;;
32319;SDS011;19080;51.750;5.888;2024-01-16T04:53:18;8.27;;;2.13;;
32319;SDS011;19080;51.750;5.888;2024-01-16T04:55:45;5.55;;;2.35;;
32319;SDS011;19080;51.750;5.888;2024-01-16T04:58:11;4.97;;;2.05;;
32319;SDS011;19080;51.750;5.888;2024-01-16T05:00:38;7.88;;;2.42;;
32319;SDS011;19080;51.750;5.888;2024-01-16T05:03:05;8.25;;;2.53;;
32319;SDS011;19080;51.750;5.888;2024-01-16T05:05:32;7.28;;;2.40;;
32319;SDS011;19080;51.750;5.888;2024-01-16T05:08:00;6.85;;;2.15;;
32319;SDS011;19080;51.750;5.888;2024-01-16T05:10:28;7.65;;;2.42;;
32319;SDS011;19080;51.750;5.888;2024-01-16T05:12:55;10.07;;;2.90;;
32319;SDS011;19080;51.750;5.888;2024-01-16T05:15:22;8.57;;;3.35;;
32319;SDS011;19080;51.750;5.888;2024-01-16T05:17:49;4.78;;;2.75;;
32319;SDS011;19080;51.750;5.888;2024-01-16T05:20:16;7.32;;;2.83;;
32319;SDS011;19080;51.750;5.888;2024-01-16T05:22:42;5.18;;;2.70;;
32319;SDS011;19080;51.750;5.888;2024-01-16T05:25:09;6.45;;;3.08;;
32319;SDS011;19080;51.750;5.888;2024-01-16T05:27:36;9.13;;;2.75;;
32319;SDS011;19080;51.750;5.888;2024-01-16T05:30:03;8.68;;;3.08;;
32319;SDS011;19080;51.750;5.888;2024-01-16T05:32:30;9.82;;;2.90;;
32319;SDS011;19080;51.750;5.888;2024-01-16T05:34:57;5.85;;;2.90;;
32319;SDS011;19080;51.750;5.888;2024-01-16T05:37:24;6.70;;;3.35;;
32319;SDS011;19080;51.750;5.888;2024-01-16T05:39:50;5.93;;;3.35;;
32319;SDS011;19080;51.750;5.888;2024-01-16T05:42:17;9.00;;;3.83;;
32319;SDS011;19080;51.750;5.888;2024-01-16T05:44:44;12.02;;;4.38;;
32319;SDS011;19080;51.750;5.888;2024-01-16T05:47:11;6.35;;;3.72;;
32319;SDS011;19080;51.750;5.888;2024-01-16T05:49:38;11.13;;;4.80;;
32319;SDS011;19080;51.750;5.888;2024-01-16T05:52:04;9.27;;;5.38;;
32319;SDS011;19080;51.750;5.888;2024-01-16T05:54:31;18.92;;;6.28;;
32319;SDS011;19080;51.750;5.888;2024-01-16T05:56:58;11.13;;;6.35;;
32319;SDS011;19080;51.750;5.888;2024-01-16T05:59:25;10.77;;;6.30;;
32319;SDS011;19080;51.750;5.888;2024-01-16T06:01:52;11.82;;;7.05;;
32319;SDS011;19080;51.750;5.888;2024-01-16T06:04:18;14.38;;;7.40;;
32319;SDS011;19080;51.750;5.888;2024-01-16T06:06:45;10.05;;;6.82;;
32319;SDS011;19080;51.750;5.888;2024-01-16T06:09:14;20.73;;;7.88;;
32319;SDS011;19080;51.750;5.888;2024-01-16T06:11:41;14.60;;;8.52;;
32319;SDS011;19080;51.750;5.888;2024-01-16T06:14:08;14.15;;;6.80;;
32319;SDS011;19080;51.750;5.888;2024-01-16T06:16:35;14.20;;;7.60;;
32319;SDS011;19080;51.750;5.888;2024-01-16T06:19:02;14.10;;;7.43;;
32319;SDS011;19080;51.750;5.888;2024-01-16T06:21:29;11.90;;;7.50;;
32319;SDS011;19080;51.750;5.888;2024-01-16T06:23:56;15.52;;;6.82;;
32319;SDS011;19080;51.750;5.888;2024-01-16T06:26:23;19.05;;;7.63;;
32319;SDS011;19080;51.750;5.888;2024-01-16T06:28:50;18.15;;;7.82;;
32319;SDS011;19080;51.750;5.888;2024-01-16T06:31:16;16.15;;;7.00;;
32319;SDS011;19080;51.750;5.888;2024-01-16T06:33:44;11.40;;;6.45;;
32319;SDS011;19080;51.750;5.888;2024-01-16T06:36:11;14.30;;;7.22;;
32319;SDS011;19080;51.750;5.888;2024-01-16T06:38:39;10.55;;;6.60;;
32319;SDS011;19080;51.750;5.888;2024-01-16T06:41:06;11.80;;;7.07;;
32319;SDS011;19080;51.750;5.888;2024-01-16T06:43:37;14.80;;;7.85;;
32319;SDS011;19080;51.750;5.888;2024-01-16T06:46:05;15.32;;;7.80;;
32319;SDS011;19080;51.750;5.888;2024-01-16T06:48:33;13.35;;;6.65;;
32319;SDS011;19080;51.750;5.888;2024-01-16T06:51:02;16.52;;;7.05;;
32319;SDS011;19080;51.750;5.888;2024-01-16T06:53:29;18.75;;;7.13;;
32319;SDS011;19080;51.750;5.888;2024-01-16T06:55:56;17.55;;;7.60;;
32319;SDS011;19080;51.750;5.888;2024-01-16T06:58:23;22.30;;;8.02;;
32319;SDS011;19080;51.750;5.888;2024-01-16T07:00:49;16.60;;;8.15;;
32319;SDS011;19080;51.750;5.888;2024-01-16T07:03:16;11.35;;;6.68;;
32319;SDS011;19080;51.750;5.888;2024-01-16T07:05:43;14.68;;;7.50;;
32319;SDS011;19080;51.750;5.888;2024-01-16T07:08:10;10.95;;;6.82;;
32319;SDS011;19080;51.750;5.888;2024-01-16T07:10:37;18.13;;;8.88;;
32319;SDS011;19080;51.750;5.888;2024-01-16T07:13:03;17.83;;;8.43;;
32319;SDS011;19080;51.750;5.888;2024-01-16T07:15:30;15.32;;;8.65;;
32319;SDS011;19080;51.750;5.888;2024-01-16T07:17:57;13.68;;;7.60;;
32319;SDS011;19080;51.750;5.888;2024-01-16T07:20:24;15.57;;;8.38;;
32319;SDS011;19080;51.750;5.888;2024-01-16T07:22:50;14.05;;;8.40;;
32319;SDS011;19080;51.750;5.888;2024-01-16T07:25:18;12.57;;;7.40;;
32319;SDS011;19080;51.750;5.888;2024-01-16T07:27:44;13.48;;;7.35;;
32319;SDS011;19080;51.750;5.888;2024-01-16T07:30:15;18.80;;;7.22;;
32319;SDS011;19080;51.750;5.888;2024-01-16T07:32:42;18.83;;;7.57;;
32319;SDS011;19080;51.750;5.888;2024-01-16T07:35:09;11.85;;;6.88;;
32319;SDS011;19080;51.750;5.888;2024-01-16T07:37:36;12.23;;;6.15;;
32319;SDS011;19080;51.750;5.888;2024-01-16T07:40:03;16.35;;;6.55;;
32319;SDS011;19080;51.750;5.888;2024-01-16T07:42:32;18.92;;;7.72;;
32319;SDS011;19080;51.750;5.888;2024-01-16T07:45:01;13.23;;;6.45;;
32319;SDS011;19080;51.750;5.888;2024-01-16T07:47:31;11.68;;;5.88;;
32319;SDS011;19080;51.750;5.888;2024-01-16T07:49:59;17.42;;;5.78;;
32319;SDS011;19080;51.750;5.888;2024-01-16T07:52:29;13.80;;;5.40;;
32319;SDS011;19080;51.750;5.888;2024-01-16T07:54:56;13.75;;;5.47;;
32319;SDS011;19080;51.750;5.888;2024-01-16T07:57:23;14.05;;;5.35;;
32319;SDS011;19080;51.750;5.888;2024-01-16T07:59:50;18.00;;;5.45;;
32319;SDS011;19080;51.750;5.888;2024-01-16T08:02:16;10.05;;;5.38;;
32319;SDS011;19080;51.750;5.888;2024-01-16T08:04:43;18.65;;;5.15;;
32319;SDS011;19080;51.750;5.888;2024-01-16T08:07:10;12.27;;;4.07;;
32319;SDS011;19080;51.750;5.888;2024-01-16T08:09:37;15.00;;;5.55;;
32319;SDS011;19080;51.750;5.888;2024-01-16T08:12:03;15.32;;;4.57;;
32319;SDS011;19080;51.750;5.888;2024-01-16T08:14:32;18.60;;;5.00;;
32319;SDS011;19080;51.750;5.888;2024-01-16T08:16:59;10.60;;;4.55;;
32319;SDS011;19080;51.750;5.888;2024-01-16T08:19:26;12.40;;;5.20;;
32319;SDS011;19080;51.750;5.888;2024-01-16T08:21:52;9.43;;;4.13;;
32319;SDS011;19080;51.750;5.888;2024-01-16T08:24:19;12.15;;;3.83;;
32319;SDS011;19080;51.750;5.888;2024-01-16T08:26:46;12.13;;;3.70;;
32319;SDS011;19080;51.750;5.888;2024-01-16T08:29:12;8.77;;;4.28;;
32319;SDS011;19080;51.750;5.888;2024-01-16T08:31:39;11.90;;;3.83;;
32319;SDS011;19080;51.750;5.888;2024-01-16T08:34:06;9.52;;;3.90;;
32319;SDS011;19080;51.750;5.888;2024-01-16T08:36:33;9.02;;;3.85;;
32319;SDS011;19080;51.750;5.888;2024-01-16T08:39:00;13.60;;;4.65;;
32319;SDS011;19080;51.750;5.888;2024-01-16T08:41:27;12.77;;;4.60;;
32319;SDS011;19080;51.750;5.888;2024-01-16T08:43:54;8.90;;;4.28;;
32319;SDS011;19080;51.750;5.888;2024-01-16T08:46:20;8.45;;;3.88;;
32319;SDS011;19080;51.750;5.888;2024-01-16T08:48:47;12.48;;;4.30;;
32319;SDS011;19080;51.750;5.888;2024-01-16T08:51:14;12.35;;;5.05;;
32319;SDS011;19080;51.750;5.888;2024-01-16T08:53:41;11.88;;;4.15;;
32319;SDS011;19080;51.750;5.888;2024-01-16T08:56:09;13.30;;;4.05;;
32319;SDS011;19080;51.750;5.888;2024-01-16T08:58:38;12.82;;;4.15;;
32319;SDS011;19080;51.750;5.888;2024-01-16T09:01:06;12.18;;;4.32;;
32319;SDS011;19080;51.750;5.888;2024-01-16T09:03:33;11.10;;;3.80;;
32319;SDS011;19080;51.750;5.888;2024-01-16T09:06:01;12.60;;;4.25;;
32319;SDS011;19080;51.750;5.888;2024-01-16T09:08:29;12.20;;;3.83;;
32319;SDS011;19080;51.750;5.888;2024-01-16T09:10:56;7.38;;;3.65;;
32319;SDS011;19080;51.750;5.888;2024-01-16T09:13:22;11.95;;;3.50;;
32319;SDS011;19080;51.750;5.888;2024-01-16T09:15:52;8.65;;;3.67;;
32319;SDS011;19080;51.750;5.888;2024-01-16T09:18:19;9.68;;;3.67;;
32319;SDS011;19080;51.750;5.888;2024-01-16T09:20:45;8.20;;;3.85;;
32319;SDS011;19080;51.750;5.888;2024-01-16T09:23:13;9.20;;;4.85;;
32319;SDS011;19080;51.750;5.888;2024-01-16T09:25:40;8.20;;;3.28;;
32319;SDS011;19080;51.750;5.888;2024-01-16T09:28:09;11.85;;;3.92;;
32319;SDS011;19080;51.750;5.888;2024-01-16T09:30:36;8.23;;;3.50;;
32319;SDS011;19080;51.750;5.888;2024-01-16T09:33:02;8.48;;;3.80;;
32319;SDS011;19080;51.750;5.888;2024-01-16T09:35:33;7.70;;;3.60;;
32319;SDS011;19080;51.750;5.888;2024-01-16T09:38:00;8.85;;;3.80;;
32319;SDS011;19080;51.750;5.888;2024-01-16T09:40:26;10.02;;;3.22;;
32319;SDS011;19080;51.750;5.888;2024-01-16T09:42:53;11.07;;;3.30;;
32319;SDS011;19080;51.750;5.888;2024-01-16T09:45:20;9.02;;;3.30;;
32319;SDS011;19080;51.750;5.888;2024-01-16T09:47:49;9.80;;;3.88;;
32319;SDS011;19080;51.750;5.888;2024-01-16T09:50:18;10.77;;;3.60;;
32319;SDS011;19080;51.750;5.888;2024-01-16T09:52:46;8.70;;;3.72;;
32319;SDS011;19080;51.750;5.888;2024-01-16T09:55:15;9.10;;;3.30;;
32319;SDS011;19080;51.750;5.888;2024-01-16T09:57:43;9.18;;;3.40;;
32319;SDS011;19080;51.750;5.888;2024-01-16T10:00:12;5.57;;;2.92;;
32319;SDS011;19080;51.750;5.888;2024-01-16T10:02:39;6.65;;;2.92;;
32319;SDS011;19080;51.750;5.888;2024-01-16T10:05:07;6.05;;;3.30;;
32319;SDS011;19080;51.750;5.888;2024-01-16T10:07:40;10.85;;;3.30;;
32319;SDS011;19080;51.750;5.888;2024-01-16T10:10:10;7.85;;;3.35;;
32319;SDS011;19080;51.750;5.888;2024-01-16T10:12:38;11.00;;;3.85;;
32319;SDS011;19080;51.750;5.888;2024-01-16T10:15:06;6.88;;;3.13;;
32319;SDS011;19080;51.750;5.888;2024-01-16T10:17:38;10.70;;;4.20;;
32319;SDS011;19080;51.750;5.888;2024-01-16T10:20:07;9.38;;;3.60;;
32319;SDS011;19080;51.750;5.888;2024-01-16T10:22:41;6.65;;;3.03;;
32319;SDS011;19080;51.750;5.888;2024-01-16T10:25:19;6.35;;;3.20;;
32319;SDS011;19080;51.750;5.888;2024-01-16T10:27:48;5.32;;;3.08;;
32319;SDS011;19080;51.750;5.888;2024-01-16T10:30:16;15.85;;;3.45;;
32319;SDS011;19080;51.750;5.888;2024-01-16T10:32:49;5.68;;;3.10;;
32319;SDS011;19080;51.750;5.888;2024-01-16T10:35:16;8.50;;;3.40;;
32319;SDS011;19080;51.750;5.888;2024-01-16T10:40:16;9.27;;;3.08;;
32319;SDS011;19080;51.750;5.888;2024-01-16T10:42:58;8.95;;;3.08;;
32319;SDS011;19080;51.750;5.888;2024-01-16T10:45:27;5.50;;;2.80;;
32319;SDS011;19080;51.750;5.888;2024-01-16T10:48:00;9.82;;;3.20;;
32319;SDS011;19080;51.750;5.888;2024-01-16T10:50:30;9.98;;;3.60;;
32319;SDS011;19080;51.750;5.888;2024-01-16T10:52:59;9.30;;;3.30;;
32319;SDS011;19080;51.750;5.888;2024-01-16T10:55:27;9.15;;;3.38;;
32319;SDS011;19080;51.750;5.888;2024-01-16T10:57:55;11.40;;;3.47;;
32319;SDS011;19080;51.750;5.888;2024-01-16T11:00:23;10.57;;;3.53;;
32319;SDS011;19080;51.750;5.888;2024-01-16T11:05:31;8.82;;;3.70;;
32319;SDS011;19080;51.750;5.888;2024-01-16T11:07:59;8.70;;;3.22;;
32319;SDS011;19080;51.750;5.888;2024-01-16T11:10:32;6.07;;;3.30;;
32319;SDS011;19080;51.750;5.888;2024-01-16T11:13:00;6.07;;;3.22;;
32319;SDS011;19080;51.750;5.888;2024-01-16T11:15:28;6.53;;;3.03;;
32319;SDS011;19080;51.750;5.888;2024-01-16T11:17:55;6.65;;;2.97;;
32319;SDS011;19080;51.750;5.888;2024-01-16T11:20:23;9.35;;;3.63;;
32319;SDS011;19080;51.750;5.888;2024-01-16T11:23:11;8.98;;;3.35;;
32319;SDS011;19080;51.750;5.888;2024-01-16T11:25:39;7.18;;;3.20;;
32319;SDS011;19080;51.750;5.888;2024-01-16T11:28:10;6.45;;;2.90;;
32319;SDS011;19080;51.750;5.888;2024-01-16T11:30:38;9.18;;;3.25;;
32319;SDS011;19080;51.750;5.888;2024-01-16T11:33:06;8.35;;;3.30;;
32319;SDS011;19080;51.750;5.888;2024-01-16T11:35:52;6.85;;;3.88;;
32319;SDS011;19080;51.750;5.888;2024-01-16T11:38:19;7.90;;;3.22;;
32319;SDS011;19080;51.750;5.888;2024-01-16T11:40:48;5.97;;;3.40;;
32319;SDS011;19080;51.750;5.888;2024-01-16T11:46:00;8.43;;;3.97;;
32319;SDS011;19080;51.750;5.888;2024-01-16T11:48:28;7.07;;;3.75;;
32319;SDS011;19080;51.750;5.888;2024-01-16T11:50:55;7.60;;;3.50;;
32319;SDS011;19080;51.750;5.888;2024-01-16T11:53:36;8.70;;;3.70;;
32319;SDS011;19080;51.750;5.888;2024-01-16T11:56:14;9.50;;;3.45;;
32319;SDS011;19080;51.750;5.888;2024-01-16T11:58:56;10.45;;;3.72;;
32319;SDS011;19080;51.750;5.888;2024-01-16T12:01:35;4.82;;;3.40;;
32319;SDS011;19080;51.750;5.888;2024-01-16T12:04:05;6.35;;;3.38;;
32319;SDS011;19080;51.750;5.888;2024-01-16T12:06:33;7.20;;;3.15;;
32319;SDS011;19080;51.750;5.888;2024-01-16T12:09:14;6.95;;;3.67;;
32319;SDS011;19080;51.750;5.888;2024-01-16T12:11:42;7.65;;;3.45;;
32319;SDS011;19080;51.750;5.888;2024-01-16T12:14:12;8.23;;;3.72;;
32319;SDS011;19080;51.750;5.888;2024-01-16T12:16:39;6.70;;;3.58;;
32319;SDS011;19080;51.750;5.888;2024-01-16T12:19:09;8.93;;;3.75;;
32319;SDS011;19080;51.750;5.888;2024-01-16T12:21:39;8.05;;;3.80;;
32319;SDS011;19080;51.750;5.888;2024-01-16T12:24:07;9.15;;;4.00;;
32319;SDS011;19080;51.750;5.888;2024-01-16T12:26:38;9.52;;;4.05;;
32319;SDS011;19080;51.750;5.888;2024-01-16T12:29:05;6.93;;;3.53;;
32319;SDS011;19080;51.750;5.888;2024-01-16T12:31:32;7.47;;;3.67;;
32319;SDS011;19080;51.750;5.888;2024-01-16T12:34:05;17.20;;;3.88;;
32319;SDS011;19080;51.750;5.888;2024-01-16T12:36:36;6.03;;;3.67;;
32319;SDS011;19080;51.750;5.888;2024-01-16T12:39:04;7.80;;;3.67;;
32319;SDS011;19080;51.750;5.888;2024-01-16T12:41:32;8.95;;;4.15;;
32319;SDS011;19080;51.750;5.888;2024-01-16T12:44:08;10.10;;;4.28;;
32319;SDS011;19080;51.750;5.888;2024-01-16T12:46:43;7.05;;;3.67;;
32319;SDS011;19080;51.750;5.888;2024-01-16T12:49:19;8.68;;;4.07;;
32319;SDS011;19080;51.750;5.888;2024-01-16T12:51:47;11.85;;;4.03;;
32319;SDS011;19080;51.750;5.888;2024-01-16T12:54:13;13.60;;;4.00;;
32319;SDS011;19080;51.750;5.888;2024-01-16T12:56:41;10.95;;;4.75;;
32319;SDS011;19080;51.750;5.888;2024-01-16T12:59:11;10.45;;;3.92;;
32319;SDS011;19080;51.750;5.888;2024-01-16T13:01:48;16.90;;;4.15;;
32319;SDS011;19080;51.750;5.888;2024-01-16T13:04:16;7.07;;;3.80;;
32319;SDS011;19080;51.750;5.888;2024-01-16T13:06:46;7.07;;;3.53;;
32319;SDS011;19080;51.750;5.888;2024-01-16T13:09:15;12.38;;;6.78;;
32319;SDS011;19080;51.750;5.888;2024-01-16T13:14:18;7.32;;;4.43;;
32319;SDS011;19080;51.750;5.888;2024-01-16T13:16:48;7.65;;;3.35;;
32319;SDS011;19080;51.750;5.888;2024-01-16T13:19:16;9.02;;;3.40;;
32319;SDS011;19080;51.750;5.888;2024-01-16T13:21:47;9.07;;;3.47;;
32319;SDS011;19080;51.750;5.888;2024-01-16T13:24:14;7.53;;;3.58;;
32319;SDS011;19080;51.750;5.888;2024-01-16T13:29:38;9.95;;;3.50;;
32319;SDS011;19080;51.750;5.888;2024-01-16T13:32:06;6.95;;;2.92;;
32319;SDS011;19080;51.750;5.888;2024-01-16T13:34:33;7.80;;;3.30;;
32319;SDS011;19080;51.750;5.888;2024-01-16T13:37:00;12.23;;;5.03;;
32319;SDS011;19080;51.750;5.888;2024-01-16T13:39:42;6.45;;;3.03;;
32319;SDS011;19080;51.750;5.888;2024-01-16T13:42:08;5.15;;;3.17;;
32319;SDS011;19080;51.750;5.888;2024-01-16T13:44:35;7.15;;;3.30;;
32319;SDS011;19080;51.750;5.888;2024-01-16T13:47:02;9.52;;;3.47;;
32319;SDS011;19080;51.750;5.888;2024-01-16T13:49:37;7.68;;;3.55;;
32319;SDS011;19080;51.750;5.888;2024-01-16T13:56:37;5.50;;;3.08;;
32319;SDS011;19080;51.750;5.888;2024-01-16T13:59:24;8.20;;;3.33;;
32319;SDS011;19080;51.750;5.888;2024-01-16T14:01:51;7.45;;;3.85;;
32319;SDS011;19080;51.750;5.888;2024-01-16T14:04:18;6.28;;;3.75;;
32319;SDS011;19080;51.750;5.888;2024-01-16T14:06:44;11.95;;;3.45;;
32319;SDS011;19080;51.750;5.888;2024-01-16T14:09:34;8.75;;;3.42;;
32319;SDS011;19080;51.750;5.888;2024-01-16T14:12:02;5.43;;;2.90;;
32319;SDS011;19080;51.750;5.888;2024-01-16T14:14:29;7.25;;;3.30;;
32319;SDS011;19080;51.750;5.888;2024-01-16T14:16:57;5.43;;;3.42;;
32319;SDS011;19080;51.750;5.888;2024-01-16T14:19:27;5.65;;;3.20;;
32319;SDS011;19080;51.750;5.888;2024-01-16T14:21:57;6.63;;;3.15;;
32319;SDS011;19080;51.750;5.888;2024-01-16T14:24:23;10.23;;;3.30;;
32319;SDS011;19080;51.750;5.888;2024-01-16T14:26:50;8.45;;;3.05;;
32319;SDS011;19080;51.750;5.888;2024-01-16T14:29:17;7.47;;;2.95;;
32319;SDS011;19080;51.750;5.888;2024-01-16T14:31:45;7.78;;;3.53;;
32319;SDS011;19080;51.750;5.888;2024-01-16T14:34:15;5.78;;;2.83;;
32319;SDS011;19080;51.750;5.888;2024-01-16T14:36:45;6.38;;;3.17;;
32319;SDS011;19080;51.750;5.888;2024-01-16T14:39:12;5.72;;;3.25;;
32319;SDS011;19080;51.750;5.888;2024-01-16T14:41:48;5.93;;;2.88;;
32319;SDS011;19080;51.750;5.888;2024-01-16T14:44:15;9.57;;;3.72;;
32319;SDS011;19080;51.750;5.888;2024-01-16T14:46:42;6.80;;;2.92;;
32319;SDS011;19080;51.750;5.888;2024-01-16T14:49:13;8.88;;;3.17;;
32319;SDS011;19080;51.750;5.888;2024-01-16T14:51:40;10.43;;;3.08;;
32319;SDS011;19080;51.750;5.888;2024-01-16T14:54:07;6.03;;;2.95;;
32319;SDS011;19080;51.750;5.888;2024-01-16T14:56:35;7.57;;;3.75;;
32319;SDS011;19080;51.750;5.888;2024-01-16T14:59:02;8.35;;;4.03;;
32319;SDS011;19080;51.750;5.888;2024-01-16T15:01:29;6.43;;;3.40;;
32319;SDS011;19080;51.750;5.888;2024-01-16T15:03:56;6.28;;;3.05;;